createdAt,value
2023-07-03T00:11:56.822Z,33.6798
2023-07-03T00:26:58.614Z,33.9621
2023-07-03T00:42:00.382Z,33.699
2023-07-03T00:57:02.174Z,34.0079
2023-07-03T01:12:04.973Z,33.7386
2023-07-03T01:27:06.870Z,34.2939
2023-07-03T01:42:08.687Z,34.1769
2023-07-03T01:57:10.497Z,34.5409
2023-07-03T02:12:12.334Z,34.6449
2023-07-03T02:27:14.260Z,34.5508
2023-07-03T02:42:16.154Z,34.1837
2023-07-03T02:57:17.995Z,34.3818
2023-07-03T03:12:19.901Z,33.7126
2023-07-03T03:27:21.718Z,34.1608
2023-07-03T03:42:23.544Z,33.9429
2023-07-03T03:57:25.373Z,34.2289
2023-07-03T04:12:27.150Z,34.349
2023-07-03T04:27:28.983Z,33.868
2023-07-03T04:42:30.816Z,33.4619
2023-07-03T04:57:32.781Z,33.9819
2023-07-03T05:12:34.598Z,33.413
2023-07-03T05:27:36.436Z,33.127
2023-07-03T05:42:38.240Z,33.5461
2023-07-03T05:57:40.102Z,33.7671
2023-07-03T06:12:41.949Z,33.504
2023-07-03T06:27:43.794Z,33.3443
2023-07-03T06:42:45.556Z,33.3282
2023-07-03T06:57:47.482Z,33.4842
2023-07-03T07:12:49.242Z,33.1852
2023-07-03T07:27:51.044Z,32.9803
2023-07-03T07:42:52.845Z,32.6782
2023-07-03T07:57:54.603Z,32.0542
2023-07-03T08:12:56.500Z,32.0245
2023-07-03T08:27:58.309Z,31.5794
2023-07-03T08:43:00.104Z,30.9913
2023-07-03T08:58:02.143Z,31.8196
2023-07-03T09:13:04.104Z,31.7577
2023-07-03T09:28:05.943Z,30.7276
2023-07-03T09:43:07.814Z,30.5159
2023-07-03T09:58:09.610Z,29.5997
2023-07-03T10:13:11.446Z,29.9829
2023-07-03T10:28:13.301Z,29.6616
2023-07-03T10:43:15.226Z,29.4468
2023-07-03T10:58:16.993Z,29.2351
2023-07-03T11:13:18.845Z,28.7349
2023-07-03T11:28:20.695Z,28.647
2023-07-03T11:58:24.559Z,28.4062
2023-07-03T12:13:26.463Z,28.4972
2023-07-03T12:28:28.274Z,27.9834
2023-07-03T12:43:30.092Z,27.7822
2023-07-03T12:58:31.924Z,27.8404
2023-07-03T13:13:33.930Z,27.4213
2023-07-03T13:28:35.749Z,27.2523
2023-07-03T13:43:37.560Z,27.7494
2023-07-03T13:58:39.357Z,27.6776
2023-07-03T14:13:41.254Z,27.2424
2023-07-03T14:28:43.191Z,27.0053
2023-07-03T14:43:45.065Z,27.1223
2023-07-03T14:58:46.874Z,27.1186
2023-07-03T15:13:48.903Z,26.9205
2023-07-03T15:28:50.784Z,27.1545
2023-07-03T15:43:52.860Z,27.4244
2023-07-03T15:58:54.690Z,27.6974
2023-07-03T16:13:56.509Z,27.0022
2023-07-03T16:28:58.410Z,27.7494
2023-07-03T16:44:00.227Z,27.8014
2023-07-03T16:59:02.072Z,27.3204
2023-07-03T17:14:03.897Z,27.2585
2023-07-03T17:29:05.648Z,28.5938
2023-07-03T17:44:07.458Z,28.5845
2023-07-03T17:59:09.262Z,27.5315
2023-07-03T18:14:11.094Z,27.6522
2023-07-03T18:29:12.949Z,26.7032
2023-07-03T18:44:14.799Z,27.3402
2023-07-03T18:59:16.638Z,27.8602
2023-07-03T19:14:18.428Z,27.8404
2023-07-03T19:29:20.289Z,27.8701
2023-07-03T19:44:22.133Z,27.9871
2023-07-03T19:59:24.043Z,28.049
2023-07-03T20:14:25.873Z,28.6922
2023-07-03T20:29:27.717Z,28.647
2023-07-03T20:44:29.565Z,30.0578
2023-07-03T20:59:31.324Z,30.9226
2023-07-03T21:14:33.117Z,31.4556
2023-07-03T21:29:34.932Z,31.8227
2023-07-03T21:44:36.789Z,32.1477
2023-07-03T21:59:38.586Z,32.3365
2023-07-03T22:14:40.468Z,32.5216
2023-07-03T22:29:42.264Z,32.7915
2023-07-03T22:44:44.083Z,32.8404
2023-07-03T22:59:45.875Z,32.9964
2023-07-03T23:14:47.718Z,32.9871
2023-07-03T23:29:49.553Z,33.1592
2023-07-03T23:44:51.383Z,33.0843
2023-07-03T23:59:53.247Z,33.0552
